Terminal Aerodrome Forecast
Issued by NWS

Home | Current Version | Previous Version | Text Only | Print | Product List | Glossary On
Versions: 1 2 3 4 5 6 7 8 9 10 11 12 13
000
FTUS43 KGRB 281100
TAFCWA
TAF
KCWA 281122Z 2812/0112 19007KT P6SM SCT250
     FM010400 19006KT P6SM SCT035 BKN060
     FM010800 18006KT P6SM -SN BKN025 OVC050=

USA.gov is the U.S. government's official web portal to all federal, state and local government web resources and services.